createdAt,value
2022-10-17T00:01:05.527Z,53.67
2022-10-17T00:03:33.618Z,51.22
2022-10-17T00:06:10.876Z,52.53
2022-10-17T00:08:40.870Z,52.15
2022-10-17T00:11:14.591Z,51.83
2022-10-17T00:13:41.772Z,52.17
2022-10-17T00:16:09.166Z,51.85
2022-10-17T00:18:36.270Z,52.20
2022-10-17T00:21:03.626Z,49.78
2022-10-17T00:23:31.893Z,50.80
2022-10-17T00:26:04.156Z,50.85
2022-10-17T00:28:33.235Z,51.28
2022-10-17T00:31:02.448Z,49.88
2022-10-17T00:33:32.092Z,49.67
2022-10-17T00:36:07.773Z,49.47
2022-10-17T00:41:02.796Z,51.05
2022-10-17T00:43:30.006Z,50.95
2022-10-17T00:45:59.401Z,51.05
2022-10-17T00:48:26.561Z,49.60
2022-10-17T00:50:56.465Z,51.67
2022-10-17T00:53:23.691Z,53.22
2022-10-17T00:55:54.220Z,51.10
2022-10-17T00:58:21.590Z,51.85
2022-10-17T01:00:48.851Z,50.78
2022-10-17T01:03:16.466Z,51.97
2022-10-17T01:05:43.756Z,53.10
2022-10-17T01:08:12.002Z,51.97
2022-10-17T01:11:04.321Z,53.60
2022-10-17T01:13:52.126Z,51.88
2022-10-17T01:16:52.362Z,53.25
2022-10-17T01:19:52.435Z,51.55
2022-10-17T01:22:33.002Z,53.05
2022-10-17T01:25:17.047Z,52.13
2022-10-17T01:28:01.636Z,51.33
2022-10-17T01:30:59.826Z,54.60
2022-10-17T01:33:47.728Z,52.92
2022-10-17T01:36:32.816Z,52.10
2022-10-17T01:39:24.986Z,51.77
2022-10-17T01:42:15.861Z,51.20
2022-10-17T01:45:07.686Z,52.40
2022-10-17T01:47:35.373Z,51.35
2022-10-17T01:50:07.841Z,53.13
2022-10-17T01:52:44.316Z,52.75
2022-10-17T01:55:23.461Z,52.67
2022-10-17T01:57:58.026Z,51.45
2022-10-17T02:00:27.964Z,50.25
2022-10-17T02:03:02.725Z,52.35
2022-10-17T02:05:35.536Z,53.97
2022-10-17T02:08:02.727Z,51.15
2022-10-17T02:10:37.046Z,52.72
2022-10-17T02:13:41.538Z,51.67
2022-10-17T02:16:19.866Z,51.08
2022-10-17T02:19:09.126Z,52.05
2022-10-17T02:21:52.471Z,51.30
2022-10-17T02:24:36.218Z,51.58
2022-10-17T02:27:15.306Z,52.00
2022-10-17T02:29:54.562Z,52.67
2022-10-17T02:32:34.877Z,52.83
2022-10-17T02:35:04.886Z,52.67
2022-10-17T02:37:32.701Z,52.70
2022-10-17T02:40:02.120Z,53.63
2022-10-17T02:42:31.235Z,53.35
2022-10-17T02:45:01.443Z,52.88
2022-10-17T02:47:38.046Z,54.03
2022-10-17T02:50:05.660Z,52.60
2022-10-17T02:52:35.472Z,52.38
2022-10-17T02:55:19.581Z,52.38
2022-10-17T02:57:56.203Z,54.13
2022-10-17T03:00:25.243Z,53.53
2022-10-17T03:02:53.975Z,53.10
2022-10-17T03:05:27.182Z,53.30
2022-10-17T03:07:54.986Z,55.05
2022-10-17T03:10:23.155Z,53.92
2022-10-17T03:12:50.225Z,55.35
2022-10-17T03:15:17.350Z,53.15
2022-10-17T03:20:11.611Z,55.17
2022-10-17T03:22:38.701Z,54.25
2022-10-17T03:25:05.981Z,52.03
2022-10-17T03:27:33.253Z,53.78
2022-10-17T03:30:00.395Z,55.05
2022-10-17T03:32:27.405Z,56.17
2022-10-17T03:34:54.457Z,54.28
2022-10-17T03:37:21.595Z,53.85
2022-10-17T03:39:48.607Z,54.20
2022-10-17T03:42:15.742Z,53.97
2022-10-17T03:44:42.947Z,51.80
2022-10-17T03:47:13.343Z,51.90
2022-10-17T03:49:41.708Z,55.58
2022-10-17T03:52:14.906Z,55.13
2022-10-17T03:54:42.106Z,53.42
2022-10-17T03:57:09.154Z,53.55
2022-10-17T03:59:36.215Z,54.65
2022-10-17T04:02:03.261Z,54.55
2022-10-17T04:04:30.316Z,53.65
2022-10-17T04:06:57.406Z,53.90
2022-10-17T04:09:24.502Z,53.40
2022-10-17T04:11:51.606Z,53.38
2022-10-17T04:14:18.771Z,51.05
2022-10-17T04:16:45.892Z,49.30
2022-10-17T04:19:14.341Z,50.85
2022-10-17T04:21:41.728Z,52.30
2022-10-17T04:24:11.899Z,49.17
2022-10-17T04:26:38.902Z,51.05
2022-10-17T04:29:05.961Z,50.72
2022-10-17T04:31:33.011Z,50.40
2022-10-17T04:34:00.036Z,48.70
2022-10-17T04:36:27.123Z,48.88
2022-10-17T04:38:57.407Z,48.85
2022-10-17T04:41:24.450Z,54.75
2022-10-17T04:43:51.621Z,50.53
2022-10-17T04:46:18.899Z,51.42
2022-10-17T04:48:46.096Z,47.65
2022-10-17T04:51:20.702Z,44.58
2022-10-17T04:53:50.453Z,48.58
2022-10-17T04:56:20.627Z,49.05
2022-10-17T04:58:48.081Z,48.67
2022-10-17T05:01:17.904Z,49.63
2022-10-17T05:03:45.276Z,49.28
2022-10-17T05:06:24.072Z,52.03
2022-10-17T05:08:51.486Z,49.67
2022-10-17T05:11:24.647Z,49.97
2022-10-17T05:13:57.326Z,51.85
2022-10-17T05:16:25.406Z,50.33
2022-10-17T05:18:55.063Z,51.63
2022-10-17T05:21:24.237Z,50.70
2022-10-17T05:23:51.891Z,50.78
2022-10-17T05:26:19.356Z,51.10
2022-10-17T05:28:46.585Z,53.05
2022-10-17T05:31:13.931Z,52.72
2022-10-17T05:33:41.440Z,52.67
2022-10-17T05:36:08.886Z,53.28
2022-10-17T05:38:36.462Z,53.58
2022-10-17T05:41:05.566Z,52.55
2022-10-17T05:43:33.862Z,52.95
2022-10-17T05:46:05.161Z,52.08
2022-10-17T05:48:32.275Z,52.97
2022-10-17T05:51:01.186Z,52.63
2022-10-17T05:53:32.336Z,53.10
2022-10-17T05:56:03.103Z,54.67
2022-10-17T05:58:49.272Z,56.13
2022-10-17T06:01:17.566Z,53.67
2022-10-17T06:03:44.617Z,51.97
2022-10-17T06:06:13.556Z,53.83
2022-10-17T06:08:40.781Z,51.75
2022-10-17T06:11:10.168Z,51.53
2022-10-17T06:13:38.518Z,52.45
2022-10-17T06:16:06.827Z,52.97
2022-10-17T06:18:34.451Z,52.30
2022-10-17T06:21:15.737Z,52.63
2022-10-17T06:23:42.811Z,53.28
2022-10-17T06:26:10.088Z,54.05
2022-10-17T06:28:37.609Z,52.85
2022-10-17T06:31:08.983Z,53.95
2022-10-17T06:33:36.988Z,52.10
2022-10-17T06:36:05.732Z,51.75
2022-10-17T06:38:34.347Z,52.45
2022-10-17T06:41:14.312Z,51.60
2022-10-17T06:43:43.525Z,47.20
2022-10-17T06:46:10.699Z,43.15
2022-10-17T06:48:37.746Z,40.08
2022-10-17T06:51:06.337Z,38.63
2022-10-17T06:53:35.401Z,38.70
2022-10-17T06:56:04.493Z,38.35
2022-10-17T06:58:33.732Z,39.08
2022-10-17T07:01:05.722Z,39.80
2022-10-17T07:03:33.064Z,40.22
2022-10-17T07:06:00.196Z,42.05
2022-10-17T07:08:27.786Z,43.58
2022-10-17T07:10:55.086Z,43.17
2022-10-17T07:13:22.487Z,43.03
2022-10-17T07:15:49.621Z,43.53
2022-10-17T07:18:16.828Z,45.42
2022-10-17T07:20:43.906Z,47.83
2022-10-17T07:23:11.266Z,44.65
2022-10-17T07:25:40.169Z,44.03
2022-10-17T07:28:07.556Z,43.70
2022-10-17T07:30:34.865Z,46.58
2022-10-17T07:33:04.896Z,48.78
2022-10-17T07:35:32.246Z,51.25
2022-10-17T07:37:59.327Z,53.53
2022-10-17T07:40:26.401Z,54.65
2022-10-17T07:42:53.616Z,50.15
2022-10-17T07:45:23.791Z,47.45
2022-10-17T07:47:50.998Z,47.03
2022-10-17T07:50:18.131Z,56.40
2022-10-17T07:52:49.371Z,47.58
2022-10-17T07:55:16.587Z,47.95
2022-10-17T07:57:43.696Z,55.92
2022-10-17T08:00:11.316Z,58.20
2022-10-17T08:02:38.437Z,58.80
2022-10-17T08:05:08.196Z,56.70
2022-10-17T08:07:35.279Z,58.08
2022-10-17T08:10:04.805Z,59.30
2022-10-17T08:12:34.427Z,55.70
2022-10-17T08:15:02.000Z,60.10
2022-10-17T08:17:29.026Z,58.50
2022-10-17T08:19:56.142Z,57.75
2022-10-17T08:22:23.355Z,57.88
2022-10-17T08:24:50.386Z,57.45
2022-10-17T08:27:23.756Z,57.85
2022-10-17T08:29:53.594Z,57.42
2022-10-17T08:32:26.647Z,57.67
2022-10-17T08:34:55.646Z,58.92
2022-10-17T08:37:23.543Z,56.25
2022-10-17T08:39:50.706Z,57.92
2022-10-17T08:42:45.886Z,56.70
2022-10-17T08:45:29.846Z,55.65
2022-10-17T08:48:12.751Z,55.25
2022-10-17T08:50:45.386Z,57.58
2022-10-17T08:53:21.120Z,59.00
2022-10-17T08:55:50.226Z,58.70
2022-10-17T08:58:26.377Z,58.08
2022-10-17T09:01:14.461Z,56.13
2022-10-17T09:04:12.266Z,55.30
2022-10-17T09:06:54.578Z,56.58
2022-10-17T09:09:35.166Z,57.78
2022-10-17T09:12:11.362Z,57.55
2022-10-17T09:14:52.436Z,56.65
2022-10-17T09:17:45.347Z,55.65
2022-10-17T09:20:18.527Z,55.20
2022-10-17T09:23:01.358Z,54.83
2022-10-17T09:25:29.486Z,55.63
2022-10-17T09:28:04.712Z,54.55
2022-10-17T09:30:45.555Z,57.33
2022-10-17T09:33:34.266Z,56.42
2022-10-17T09:36:15.147Z,53.78
2022-10-17T09:38:53.245Z,55.60
2022-10-17T09:41:46.613Z,54.65
2022-10-17T09:44:22.086Z,55.15
2022-10-17T09:47:13.055Z,44.03
2022-10-17T09:49:46.235Z,54.38
2022-10-17T09:52:18.569Z,55.97
2022-10-17T09:55:11.888Z,55.53
2022-10-17T09:58:02.783Z,56.45
2022-10-17T10:00:36.149Z,54.50
2022-10-17T10:03:26.295Z,54.28
2022-10-17T10:06:17.900Z,53.70
2022-10-17T10:09:03.561Z,54.10
2022-10-17T10:11:55.717Z,55.78
2022-10-17T10:14:33.627Z,54.10
2022-10-17T10:17:02.546Z,52.72
2022-10-17T10:19:38.011Z,55.42
2022-10-17T10:25:20.387Z,51.20
2022-10-17T10:27:47.894Z,51.05
2022-10-17T10:30:25.737Z,52.03
2022-10-17T10:33:00.676Z,52.33
2022-10-17T10:35:36.517Z,50.63
2022-10-17T10:38:13.346Z,52.72
2022-10-17T10:41:12.205Z,52.85
2022-10-17T10:43:48.427Z,51.22
2022-10-17T10:46:27.438Z,51.40
2022-10-17T10:49:00.708Z,52.13
2022-10-17T10:51:49.140Z,52.33
2022-10-17T10:54:41.113Z,54.15
2022-10-17T10:57:20.073Z,52.25
2022-10-17T11:00:00.627Z,52.95
2022-10-17T11:02:53.085Z,51.17
2022-10-17T11:05:42.913Z,52.33
2022-10-17T11:08:28.307Z,51.00
2022-10-17T11:11:25.102Z,50.17
2022-10-17T11:14:13.857Z,51.67
2022-10-17T11:16:49.977Z,53.10
2022-10-17T11:19:41.657Z,49.50
2022-10-17T11:22:29.334Z,47.45
2022-10-17T11:25:14.766Z,50.15
2022-10-17T11:27:41.876Z,47.20
2022-10-17T11:30:15.150Z,47.28
2022-10-17T11:33:11.997Z,51.50
2022-10-17T11:35:43.215Z,47.13
2022-10-17T11:38:34.606Z,48.85
2022-10-17T11:41:03.266Z,52.17
2022-10-17T11:43:45.047Z,51.33
2022-10-17T11:46:21.901Z,50.33
2022-10-17T11:49:02.656Z,51.25
2022-10-17T11:54:38.449Z,51.72
2022-10-17T11:57:35.977Z,46.65
2022-10-17T12:00:49.916Z,47.45
2022-10-17T12:03:46.636Z,48.80
2022-10-17T12:06:45.227Z,46.53
2022-10-17T12:09:48.731Z,45.53
2022-10-17T12:12:27.707Z,46.80
2022-10-17T12:15:24.266Z,45.05
2022-10-17T12:18:03.267Z,47.80
2022-10-17T12:20:34.898Z,44.20
2022-10-17T12:23:10.793Z,45.55
2022-10-17T12:25:59.764Z,46.22
2022-10-17T12:28:41.230Z,45.22
2022-10-17T12:31:16.089Z,40.58
2022-10-17T12:33:54.589Z,43.72
2022-10-17T12:36:28.996Z,47.65
2022-10-17T12:39:02.013Z,47.10
2022-10-17T12:41:42.321Z,45.25
2022-10-17T12:44:15.543Z,46.95
2022-10-17T12:47:02.231Z,47.03
2022-10-17T12:49:54.538Z,44.17
2022-10-17T12:52:32.916Z,42.03
2022-10-17T12:55:13.779Z,46.25
2022-10-17T12:58:11.755Z,42.10
2022-10-17T13:01:11.581Z,44.08
2022-10-17T13:03:44.619Z,42.78
2022-10-17T13:06:19.806Z,38.58
2022-10-17T13:08:56.107Z,40.33
2022-10-17T13:11:30.148Z,40.05
2022-10-17T13:14:00.637Z,42.50
2022-10-17T13:16:42.036Z,43.17
2022-10-17T13:19:17.236Z,42.60
2022-10-17T13:22:06.505Z,42.80
2022-10-17T13:24:39.248Z,42.97
2022-10-17T13:27:23.748Z,61.05
2022-10-17T13:29:53.461Z,47.15
2022-10-17T13:32:20.557Z,45.92
2022-10-17T13:35:04.446Z,44.03
2022-10-17T13:37:31.547Z,41.45
2022-10-17T13:40:06.968Z,43.10
2022-10-17T13:42:45.242Z,43.13
2022-10-17T13:45:24.836Z,41.70
2022-10-17T13:47:52.096Z,45.05
2022-10-17T13:50:44.656Z,45.47
2022-10-17T13:53:47.647Z,45.38
2022-10-17T13:56:28.472Z,38.25
2022-10-17T13:58:59.863Z,41.50
2022-10-17T14:01:29.318Z,36.53
2022-10-17T14:04:08.305Z,40.47
2022-10-17T14:06:47.995Z,43.22
2022-10-17T14:09:30.166Z,43.20
2022-10-17T14:12:19.246Z,40.85
2022-10-17T14:17:40.837Z,40.75
2022-10-17T14:20:48.255Z,40.95
2022-10-17T14:25:50.092Z,43.58
2022-10-17T14:28:18.590Z,46.55
2022-10-17T14:30:57.421Z,39.53
2022-10-17T14:33:31.303Z,41.95
2022-10-17T14:36:00.876Z,43.67
2022-10-17T14:38:31.745Z,42.35
2022-10-17T14:41:44.300Z,43.75
2022-10-17T14:44:35.528Z,43.05
2022-10-17T14:47:30.713Z,43.55
2022-10-17T14:50:06.317Z,42.60
2022-10-17T14:52:34.097Z,44.75
2022-10-17T14:55:24.531Z,41.58
2022-10-17T14:57:51.765Z,40.60
2022-10-17T15:00:23.926Z,41.03
2022-10-17T15:02:52.662Z,42.58
2022-10-17T15:05:20.582Z,45.28
2022-10-17T15:07:49.996Z,43.80
2022-10-17T15:10:34.456Z,44.58
2022-10-17T15:15:53.125Z,43.35
2022-10-17T15:18:20.236Z,43.78
2022-10-17T15:20:50.087Z,45.13
2022-10-17T15:23:23.401Z,42.47
2022-10-17T15:25:52.666Z,41.67
2022-10-17T15:28:20.311Z,42.30
2022-10-17T15:30:47.376Z,40.85
2022-10-17T15:33:16.728Z,39.97
2022-10-17T15:35:43.786Z,41.40
2022-10-17T15:38:16.131Z,39.80
2022-10-17T15:40:43.151Z,40.40
2022-10-17T15:43:10.266Z,38.92
2022-10-17T15:45:39.836Z,40.35
2022-10-17T15:48:08.445Z,41.25
2022-10-17T15:50:35.510Z,39.08
2022-10-17T15:53:03.925Z,40.35
2022-10-17T15:55:32.007Z,39.58
2022-10-17T15:57:59.165Z,39.53
2022-10-17T16:00:26.298Z,26.15
2022-10-17T16:02:57.096Z,28.17
2022-10-17T16:05:28.113Z,38.63
2022-10-17T16:07:55.950Z,38.08
2022-10-17T16:10:23.629Z,35.90
2022-10-17T16:12:50.857Z,37.20
2022-10-17T16:15:23.451Z,35.55
2022-10-17T16:17:51.474Z,34.58
2022-10-17T16:20:19.767Z,36.25
2022-10-17T16:22:47.751Z,35.25
2022-10-17T16:25:27.980Z,34.75
2022-10-17T16:27:57.176Z,35.10
2022-10-17T16:30:27.380Z,34.92
2022-10-17T16:32:55.700Z,35.63
2022-10-17T16:35:31.921Z,36.88
2022-10-17T16:38:03.157Z,37.55
2022-10-17T16:40:30.216Z,36.22
2022-10-17T16:42:57.285Z,38.13
2022-10-17T16:45:26.950Z,36.00
2022-10-17T16:47:55.626Z,35.38
2022-10-17T16:50:23.041Z,34.97
2022-10-17T16:52:50.300Z,37.53
2022-10-17T16:55:19.175Z,35.72
2022-10-17T16:57:48.945Z,36.67
2022-10-17T17:00:17.820Z,35.63
2022-10-17T17:02:48.632Z,36.75
2022-10-17T17:05:16.058Z,36.58
2022-10-17T17:07:43.107Z,36.63
2022-10-17T17:10:10.366Z,36.95
2022-10-17T17:12:37.656Z,36.33
2022-10-17T17:15:05.706Z,37.70
2022-10-17T17:17:52.419Z,38.40
2022-10-17T17:20:21.568Z,39.25
2022-10-17T17:22:55.945Z,37.95
2022-10-17T17:25:23.435Z,40.10
2022-10-17T17:27:53.210Z,40.30
2022-10-17T17:30:20.376Z,37.83
2022-10-17T17:32:47.575Z,39.95
2022-10-17T17:35:14.606Z,40.15
2022-10-17T17:37:41.625Z,40.72
2022-10-17T17:40:09.107Z,40.40
2022-10-17T17:42:36.105Z,43.00
2022-10-17T17:45:03.616Z,40.45
2022-10-17T17:47:30.888Z,40.78
2022-10-17T17:49:58.016Z,40.90
2022-10-17T17:52:27.572Z,42.15
2022-10-17T17:54:54.706Z,42.92
2022-10-17T17:57:22.087Z,43.08
2022-10-17T17:59:50.351Z,43.47
2022-10-17T18:02:17.822Z,43.78
2022-10-17T18:04:44.926Z,43.38
2022-10-17T18:07:17.602Z,44.45
2022-10-17T18:09:44.788Z,43.25
2022-10-17T18:12:13.749Z,42.90
2022-10-17T18:14:40.873Z,42.42
2022-10-17T18:17:10.541Z,42.22
2022-10-17T18:19:37.753Z,41.70
2022-10-17T18:22:04.806Z,41.97
2022-10-17T18:24:31.826Z,43.60
2022-10-17T18:27:00.017Z,43.33
2022-10-17T18:29:29.574Z,43.28
2022-10-17T18:31:56.697Z,44.33
2022-10-17T18:34:29.576Z,45.42
2022-10-17T18:36:56.744Z,44.28
2022-10-17T18:39:23.837Z,45.78
2022-10-17T18:41:50.970Z,44.28
2022-10-17T18:44:21.098Z,45.15
2022-10-17T18:46:51.248Z,45.15
2022-10-17T18:49:19.631Z,44.35
2022-10-17T18:51:47.237Z,45.20
2022-10-17T18:54:21.937Z,43.83
2022-10-17T18:56:55.476Z,45.57
2022-10-17T18:59:22.842Z,47.90
2022-10-17T19:01:50.143Z,38.33
2022-10-17T19:04:17.261Z,38.45
2022-10-17T19:06:44.577Z,32.22
2022-10-17T19:09:13.201Z,32.45
2022-10-17T19:11:42.176Z,32.40
2022-10-17T19:14:15.547Z,32.95
2022-10-17T19:16:50.984Z,33.33
2022-10-17T19:19:23.458Z,30.55
2022-10-17T19:21:51.312Z,38.70
2022-10-17T19:24:21.228Z,38.53
2022-10-17T19:26:50.506Z,36.83
2022-10-17T19:29:21.269Z,36.60
2022-10-17T19:31:51.362Z,33.65
2022-10-17T19:34:18.951Z,32.78
2022-10-17T19:36:46.438Z,33.65
2022-10-17T19:39:19.299Z,31.75
2022-10-17T19:41:50.226Z,30.63
2022-10-17T19:44:17.719Z,27.77
2022-10-17T19:46:47.116Z,26.50
2022-10-17T19:49:14.778Z,28.75
2022-10-17T19:51:42.181Z,29.20
2022-10-17T19:54:10.968Z,28.67
2022-10-17T19:56:39.420Z,28.00
2022-10-17T19:59:07.326Z,30.23
2022-10-17T20:01:36.534Z,30.35
2022-10-17T20:04:10.426Z,30.27
2022-10-17T20:06:40.526Z,32.63
2022-10-17T20:09:13.946Z,29.58
2022-10-17T20:11:46.127Z,29.30
2022-10-17T20:14:13.336Z,29.38
2022-10-17T20:16:40.436Z,29.85
2022-10-17T20:19:13.029Z,31.95
2022-10-17T20:21:40.432Z,30.05
2022-10-17T20:24:11.219Z,30.70
2022-10-17T20:26:39.967Z,31.45
2022-10-17T20:29:12.018Z,32.85
2022-10-17T20:31:49.369Z,34.10
2022-10-17T20:34:20.528Z,30.67
2022-10-17T20:36:49.987Z,27.50
2022-10-17T20:39:18.858Z,32.03
2022-10-17T20:41:48.687Z,32.63
2022-10-17T20:44:15.937Z,32.40
2022-10-17T20:47:00.674Z,29.30
2022-10-17T20:49:28.932Z,27.95
2022-10-17T20:52:04.766Z,30.48
2022-10-17T20:54:31.899Z,31.25
2022-10-17T20:57:02.445Z,31.73
2022-10-17T20:59:32.771Z,30.10
2022-10-17T21:02:00.957Z,28.30
2022-10-17T21:04:46.715Z,29.75
2022-10-17T21:07:14.696Z,29.73
2022-10-17T21:09:41.876Z,27.75
2022-10-17T21:12:08.982Z,29.92
2022-10-17T21:14:43.756Z,29.67
2022-10-17T21:17:10.852Z,30.55
2022-10-17T21:19:37.957Z,30.20
2022-10-17T21:22:05.047Z,31.25
2022-10-17T21:24:35.526Z,31.70
2022-10-17T21:27:02.616Z,31.15
2022-10-17T21:29:29.776Z,30.42
2022-10-17T21:31:56.904Z,34.05
2022-10-17T21:34:25.213Z,34.45
2022-10-17T21:36:53.467Z,34.22
2022-10-17T21:39:21.938Z,35.75
2022-10-17T21:41:49.158Z,34.42
2022-10-17T21:44:21.065Z,35.45
2022-10-17T21:46:48.885Z,34.40
2022-10-17T21:49:18.457Z,35.17
2022-10-17T21:51:47.601Z,33.92
2022-10-17T21:54:16.136Z,36.10
2022-10-17T21:56:45.646Z,35.88
2022-10-17T21:59:14.199Z,35.67
2022-10-17T22:01:45.650Z,34.78
2022-10-17T22:04:15.726Z,33.97
2022-10-17T22:06:44.705Z,32.85
2022-10-17T22:09:18.987Z,32.28
2022-10-17T22:11:48.527Z,33.47
2022-10-17T22:14:18.335Z,34.97
2022-10-17T22:16:47.008Z,31.40
2022-10-17T22:19:16.795Z,33.03
2022-10-17T22:21:44.976Z,33.45
2022-10-17T22:24:14.993Z,34.33
2022-10-17T22:26:44.791Z,33.17
2022-10-17T22:29:12.526Z,32.85
2022-10-17T22:31:41.727Z,32.95
2022-10-17T22:34:10.626Z,32.22
2022-10-17T22:36:37.847Z,33.60
2022-10-17T22:39:08.115Z,33.25
2022-10-17T22:41:35.149Z,33.65
2022-10-17T22:44:04.750Z,35.22
2022-10-17T22:46:31.971Z,33.45
2022-10-17T22:48:59.086Z,35.65
2022-10-17T22:51:26.211Z,32.92
2022-10-17T22:53:53.236Z,33.33
2022-10-17T22:56:22.016Z,32.40
2022-10-17T22:58:49.248Z,29.52
2022-10-17T23:01:22.211Z,29.15
2022-10-17T23:03:49.906Z,29.48
2022-10-17T23:06:17.208Z,25.33
2022-10-17T23:08:47.052Z,32.03
2022-10-17T23:11:14.357Z,32.78
2022-10-17T23:13:41.485Z,26.00
2022-10-17T23:16:09.336Z,32.28
2022-10-17T23:18:38.017Z,30.98
2022-10-17T23:21:05.766Z,28.05
2022-10-17T23:23:36.267Z,26.73
2022-10-17T23:26:07.847Z,31.13
2022-10-17T23:28:35.828Z,29.60
2022-10-17T23:31:19.397Z,27.75
2022-10-17T23:33:49.876Z,26.65
2022-10-17T23:36:19.272Z,29.48
2022-10-17T23:38:51.739Z,26.45
2022-10-17T23:41:20.916Z,25.25
2022-10-17T23:43:49.629Z,27.02
2022-10-17T23:46:16.895Z,26.73
2022-10-17T23:48:46.328Z,25.90
2022-10-17T23:51:13.567Z,28.50
2022-10-17T23:53:41.107Z,28.45
2022-10-17T23:56:12.210Z,29.20
2022-10-17T23:58:42.616Z,25.90
